DAL792 KLAX-KMSP
Flight info
| Callsign | DAL792 |
|---|---|
| Flight time | 3h 12m |
| Altitude | 33000 |
| Route | ORCKA5 LAS BAWER LARVE/N0463F350 EKR BFF SSWAN TORGY4 |
| Aircraft | B739/M-SDE2E3FGHIRWXY/LB1 |
Departure
| Time | 2026-05-07 07:57 |
|---|---|
| Airport | Los Angeles International Airport (KLAX) |
Arrival
| Time | 2026-05-07 11:09 |
|---|---|
| Airport | Minneapolis–Saint Paul International Airport / Wold–Chamberlain Field (KMSP) |
| Time | Latitude | Longitude | Altitude | Speed | Heading |
|---|---|---|---|---|---|
| 2026-05-07 07:34 | 33.94598 | -118.40642 | 125 ft | 0 kts | 303° |
| 2026-05-07 07:49 | 33.94587 | -118.40622 | 119 ft | 3 kts | 303° |
| 2026-05-07 07:49 | 33.94576 | -118.40600 | 119 ft | 4 kts | 286° |
| 2026-05-07 07:50 | 33.94574 | -118.40569 | 120 ft | 4 kts | 273° |
| 2026-05-07 07:50 | 33.94574 | -118.40557 | 119 ft | 4 kts | 313° |
| 2026-05-07 07:50 | 33.94595 | -118.40557 | 122 ft | 4 kts | 8° |
| 2026-05-07 07:50 | 33.94599 | -118.40558 | 121 ft | 4 kts | 352° |
| 2026-05-07 07:51 | 33.94626 | -118.40562 | 122 ft | 4 kts | 352° |
| 2026-05-07 07:51 | 33.94653 | -118.40566 | 123 ft | 4 kts | 352° |
| 2026-05-07 07:51 | 33.94672 | -118.40569 | 122 ft | 1 kts | 352° |
| 2026-05-07 07:53 | 33.94674 | -118.40570 | 121 ft | 1 kts | 352° |
| 2026-05-07 07:53 | 33.94705 | -118.40575 | 122 ft | 8 kts | 352° |
| 2026-05-07 07:54 | 33.94781 | -118.40587 | 122 ft | 14 kts | 348° |
| 2026-05-07 07:54 | 33.94867 | -118.40564 | 123 ft | 15 kts | 73° |
| 2026-05-07 07:54 | 33.94884 | -118.40414 | 123 ft | 21 kts | 83° |
| 2026-05-07 07:54 | 33.94903 | -118.40232 | 122 ft | 22 kts | 83° |
| 2026-05-07 07:55 | 33.94921 | -118.40053 | 122 ft | 21 kts | 83° |
| 2026-05-07 07:55 | 33.94942 | -118.39942 | 125 ft | 6 kts | 55° |
| 2026-05-07 07:55 | 33.94948 | -118.39934 | 122 ft | 0 kts | 47° |
| 2026-05-07 07:56 | 33.94954 | -118.39926 | 122 ft | 5 kts | 41° |
| 2026-05-07 07:56 | 33.95019 | -118.39922 | 122 ft | 14 kts | 339° |
| 2026-05-07 07:56 | 33.95031 | -118.40058 | 122 ft | 32 kts | 261° |
| 2026-05-07 07:57 | 33.94971 | -118.40648 | 123 ft | 108 kts | 263° |
| 2026-05-07 07:57 | 33.94850 | -118.41809 | 132 ft | 168 kts | 261° |
| 2026-05-07 07:57 | 33.94684 | -118.43315 | 605 ft | 184 kts | 262° |
| 2026-05-07 07:57 | 33.94536 | -118.44824 | 1539 ft | 181 kts | 264° |
| 2026-05-07 07:58 | 33.94403 | -118.46354 | 2160 ft | 195 kts | 264° |
| 2026-05-07 07:58 | 33.94221 | -118.48087 | 2382 ft | 221 kts | 258° |
| 2026-05-07 07:58 | 33.93503 | -118.49762 | 2640 ft | 234 kts | 221° |
| 2026-05-07 07:58 | 33.92037 | -118.50631 | 3014 ft | 245 kts | 188° |
| 2026-05-07 07:59 | 33.90301 | -118.50360 | 3239 ft | 263 kts | 153° |
| 2026-05-07 07:59 | 33.88946 | -118.48893 | 3823 ft | 269 kts | 122° |
| 2026-05-07 07:59 | 33.88236 | -118.46775 | 4318 ft | 277 kts | 96° |
| 2026-05-07 07:59 | 33.88340 | -118.44518 | 5125 ft | 271 kts | 69° |
| 2026-05-07 08:00 | 33.89329 | -118.42634 | 5750 ft | 267 kts | 39° |
| 2026-05-07 08:00 | 33.90948 | -118.41556 | 6346 ft | 270 kts | 17° |
| 2026-05-07 08:00 | 33.92754 | -118.40812 | 6908 ft | 274 kts | 24° |
| 2026-05-07 08:00 | 33.94378 | -118.39671 | 7701 ft | 270 kts | 37° |
| 2026-05-07 08:01 | 33.95809 | -118.38164 | 8244 ft | 277 kts | 46° |
| 2026-05-07 08:01 | 33.97059 | -118.36422 | 9026 ft | 273 kts | 52° |
| 2026-05-07 08:01 | 33.98186 | -118.34602 | 9800 ft | 271 kts | 55° |
| 2026-05-07 08:01 | 33.99277 | -118.32722 | 10339 ft | 277 kts | 56° |
| 2026-05-07 08:02 | 34.00389 | -118.30759 | 10662 ft | 291 kts | 56° |
| 2026-05-07 08:02 | 34.01546 | -118.28706 | 10924 ft | 306 kts | 56° |
| 2026-05-07 08:02 | 34.02755 | -118.26551 | 11340 ft | 314 kts | 56° |
| 2026-05-07 08:02 | 34.03991 | -118.24380 | 12011 ft | 313 kts | 56° |
| 2026-05-07 08:03 | 34.05222 | -118.22212 | 12642 ft | 315 kts | 56° |
| 2026-05-07 08:03 | 34.06471 | -118.20004 | 13094 ft | 322 kts | 56° |
| 2026-05-07 08:03 | 34.07750 | -118.17738 | 13474 ft | 332 kts | 56° |
| 2026-05-07 08:03 | 34.09070 | -118.15422 | 13958 ft | 337 kts | 56° |
| 2026-05-07 08:04 | 34.10390 | -118.13084 | 14547 ft | 336 kts | 56° |
| 2026-05-07 08:04 | 34.11698 | -118.10752 | 15221 ft | 333 kts | 56° |
| 2026-05-07 08:04 | 34.13010 | -118.08428 | 15681 ft | 340 kts | 56° |
| 2026-05-07 08:04 | 34.14372 | -118.06020 | 15774 ft | 355 kts | 55° |
| 2026-05-07 08:05 | 34.15797 | -118.03502 | 15881 ft | 370 kts | 55° |
| 2026-05-07 08:05 | 34.17272 | -118.00894 | 15983 ft | 383 kts | 55° |
| 2026-05-07 08:05 | 34.18796 | -117.98193 | 16068 ft | 395 kts | 55° |
| 2026-05-07 08:05 | 34.20339 | -117.95454 | 16171 ft | 404 kts | 55° |
| 2026-05-07 08:06 | 34.21927 | -117.92628 | 16457 ft | 408 kts | 55° |
| 2026-05-07 08:06 | 34.23526 | -117.89779 | 16843 ft | 410 kts | 55° |
| 2026-05-07 08:06 | 34.25128 | -117.86922 | 17234 ft | 411 kts | 55° |
| 2026-05-07 08:06 | 34.26737 | -117.84050 | 17586 ft | 413 kts | 55° |
| 2026-05-07 08:07 | 34.28350 | -117.81170 | 17914 ft | 415 kts | 55° |
| 2026-05-07 08:07 | 34.29975 | -117.78266 | 18197 ft | 419 kts | 55° |
| 2026-05-07 08:07 | 34.31608 | -117.75345 | 18530 ft | 420 kts | 55° |
| 2026-05-07 08:07 | 34.33248 | -117.72409 | 18836 ft | 421 kts | 55° |
| 2026-05-07 08:08 | 34.34892 | -117.69465 | 19120 ft | 423 kts | 55° |
| 2026-05-07 08:08 | 34.36572 | -117.66533 | 19411 ft | 424 kts | 53° |
| 2026-05-07 08:08 | 34.38302 | -117.63628 | 19695 ft | 426 kts | 53° |
| 2026-05-07 08:08 | 34.40053 | -117.60726 | 19994 ft | 428 kts | 53° |
| 2026-05-07 08:09 | 34.41814 | -117.57813 | 20296 ft | 429 kts | 53° |
| 2026-05-07 08:09 | 34.43578 | -117.54886 | 20588 ft | 431 kts | 53° |
| 2026-05-07 08:09 | 34.45344 | -117.51940 | 20879 ft | 432 kts | 53° |
| 2026-05-07 08:09 | 34.47111 | -117.48983 | 21161 ft | 434 kts | 53° |
| 2026-05-07 08:10 | 34.48890 | -117.45998 | 21435 ft | 436 kts | 53° |
| 2026-05-07 08:10 | 34.50666 | -117.43011 | 21711 ft | 437 kts | 53° |
| 2026-05-07 08:10 | 34.52420 | -117.40056 | 21970 ft | 439 kts | 53° |
| 2026-05-07 08:10 | 34.54206 | -117.37046 | 22229 ft | 440 kts | 53° |
| 2026-05-07 08:11 | 34.55994 | -117.34029 | 22461 ft | 442 kts | 53° |
| 2026-05-07 08:11 | 34.57792 | -117.30994 | 22700 ft | 443 kts | 53° |
| 2026-05-07 08:11 | 34.59603 | -117.27934 | 22938 ft | 445 kts | 53° |
| 2026-05-07 08:11 | 34.61408 | -117.24880 | 23180 ft | 446 kts | 53° |
| 2026-05-07 08:12 | 34.63220 | -117.21815 | 23398 ft | 448 kts | 53° |
| 2026-05-07 08:12 | 34.65020 | -117.18765 | 23598 ft | 449 kts | 53° |
| 2026-05-07 08:12 | 34.66844 | -117.15673 | 23790 ft | 451 kts | 53° |
| 2026-05-07 08:12 | 34.68668 | -117.12578 | 23956 ft | 452 kts | 53° |
| 2026-05-07 08:13 | 34.70505 | -117.09458 | 24152 ft | 453 kts | 53° |
| 2026-05-07 08:13 | 34.72330 | -117.06355 | 24312 ft | 454 kts | 53° |
| 2026-05-07 08:13 | 34.74169 | -117.03226 | 24496 ft | 455 kts | 53° |
| 2026-05-07 08:13 | 34.76016 | -117.00081 | 24682 ft | 457 kts | 53° |
| 2026-05-07 08:14 | 34.77864 | -116.96932 | 24861 ft | 458 kts | 53° |
| 2026-05-07 08:14 | 34.79716 | -116.93771 | 25044 ft | 460 kts | 53° |
| 2026-05-07 08:14 | 34.81576 | -116.90595 | 25255 ft | 460 kts | 53° |
| 2026-05-07 08:14 | 34.83440 | -116.87410 | 25454 ft | 462 kts | 53° |
| 2026-05-07 08:15 | 34.85305 | -116.84219 | 25673 ft | 462 kts | 53° |
| 2026-05-07 08:15 | 34.87164 | -116.81036 | 25956 ft | 461 kts | 53° |
| 2026-05-07 08:15 | 34.89019 | -116.77857 | 26268 ft | 459 kts | 53° |
| 2026-05-07 08:15 | 34.90866 | -116.74689 | 26563 ft | 458 kts | 53° |
| 2026-05-07 08:16 | 34.92755 | -116.71622 | 26822 ft | 457 kts | 49° |
| 2026-05-07 08:16 | 34.94874 | -116.68731 | 27093 ft | 456 kts | 46° |
| 2026-05-07 08:16 | 34.97043 | -116.65912 | 27385 ft | 455 kts | 45° |
| 2026-05-07 08:16 | 34.99224 | -116.63113 | 27667 ft | 455 kts | 45° |
| 2026-05-07 08:17 | 35.01399 | -116.60315 | 27964 ft | 454 kts | 45° |
| 2026-05-07 08:17 | 35.03563 | -116.57509 | 28260 ft | 453 kts | 46° |
| 2026-05-07 08:17 | 35.05718 | -116.54692 | 28576 ft | 453 kts | 46° |
| 2026-05-07 08:17 | 35.07863 | -116.51871 | 28894 ft | 452 kts | 46° |
| 2026-05-07 08:18 | 35.09996 | -116.49055 | 29213 ft | 452 kts | 46° |
| 2026-05-07 08:18 | 35.12123 | -116.46240 | 29577 ft | 450 kts | 46° |
| 2026-05-07 08:18 | 35.14244 | -116.43429 | 29917 ft | 450 kts | 46° |
| 2026-05-07 08:18 | 35.15650 | -116.41565 | 30126 ft | 449 kts | 46° |
| 2026-05-07 08:19 | 35.18480 | -116.37811 | 30499 ft | 448 kts | 46° |
| 2026-05-07 08:19 | 35.20568 | -116.35039 | 30763 ft | 448 kts | 46° |
| 2026-05-07 08:19 | 35.22679 | -116.32235 | 31001 ft | 448 kts | 46° |
| 2026-05-07 08:19 | 35.24792 | -116.29426 | 31264 ft | 447 kts | 46° |
| 2026-05-07 08:20 | 35.26185 | -116.27572 | 31444 ft | 446 kts | 46° |
| 2026-05-07 08:20 | 35.28286 | -116.24775 | 31706 ft | 446 kts | 46° |
| 2026-05-07 08:20 | 35.30385 | -116.21979 | 31911 ft | 446 kts | 46° |
| 2026-05-07 08:20 | 35.32484 | -116.19180 | 32127 ft | 446 kts | 46° |
| 2026-05-07 08:21 | 35.34579 | -116.16384 | 32375 ft | 445 kts | 45° |
| 2026-05-07 08:21 | 35.36672 | -116.13588 | 32640 ft | 444 kts | 45° |
| 2026-05-07 08:21 | 35.38757 | -116.10800 | 32876 ft | 444 kts | 45° |
| 2026-05-07 08:21 | 35.40842 | -116.08010 | 33005 ft | 444 kts | 45° |
| 2026-05-07 08:22 | 35.42936 | -116.05207 | 33003 ft | 445 kts | 45° |
| 2026-05-07 08:22 | 35.47113 | -115.99606 | 33012 ft | 444 kts | 45° |
| 2026-05-07 08:23 | 35.51270 | -115.94024 | 33031 ft | 442 kts | 45° |
| 2026-05-07 08:23 | 35.55391 | -115.88479 | 33035 ft | 442 kts | 45° |
| 2026-05-07 08:24 | 35.59531 | -115.82901 | 33048 ft | 441 kts | 45° |
| 2026-05-07 08:24 | 35.63670 | -115.77315 | 33051 ft | 442 kts | 46° |
| 2026-05-07 08:25 | 35.67788 | -115.71683 | 33062 ft | 442 kts | 46° |
| 2026-05-07 08:25 | 35.71894 | -115.66030 | 33071 ft | 444 kts | 46° |
| 2026-05-07 08:26 | 35.78049 | -115.57549 | 33075 ft | 445 kts | 46° |
| 2026-05-07 08:26 | 35.82186 | -115.51840 | 33078 ft | 446 kts | 46° |
| 2026-05-07 08:27 | 35.86327 | -115.46118 | 33094 ft | 447 kts | 46° |
| 2026-05-07 08:27 | 35.90467 | -115.40386 | 33097 ft | 447 kts | 46° |
| 2026-05-07 08:28 | 35.94576 | -115.34689 | 33103 ft | 447 kts | 46° |
| 2026-05-07 08:28 | 35.98711 | -115.28944 | 33104 ft | 447 kts | 46° |
| 2026-05-07 08:29 | 36.02849 | -115.23184 | 33070 ft | 447 kts | 46° |
| 2026-05-07 08:29 | 36.06975 | -115.17434 | 33086 ft | 446 kts | 46° |
| 2026-05-07 08:30 | 36.10776 | -115.11341 | 33090 ft | 448 kts | 52° |
| 2026-05-07 08:30 | 36.14273 | -115.05020 | 33074 ft | 448 kts | 53° |
| 2026-05-07 08:31 | 36.17779 | -114.98645 | 33027 ft | 447 kts | 53° |
| 2026-05-07 08:31 | 36.21305 | -114.92295 | 33041 ft | 447 kts | 53° |
| 2026-05-07 08:32 | 36.24838 | -114.85963 | 33006 ft | 447 kts | 53° |
| 2026-05-07 08:32 | 36.28376 | -114.79620 | 32994 ft | 447 kts | 53° |
| 2026-05-07 08:33 | 36.31888 | -114.73312 | 32966 ft | 446 kts | 53° |
| 2026-05-07 08:33 | 36.35415 | -114.66965 | 32951 ft | 447 kts | 53° |
| 2026-05-07 08:34 | 36.38945 | -114.60597 | 32948 ft | 447 kts | 53° |
| 2026-05-07 08:34 | 36.42443 | -114.54277 | 32950 ft | 447 kts | 53° |
| 2026-05-07 08:35 | 36.45991 | -114.47854 | 32946 ft | 448 kts | 53° |
| 2026-05-07 08:35 | 36.49508 | -114.41475 | 32949 ft | 449 kts | 53° |
| 2026-05-07 08:36 | 36.53027 | -114.35081 | 32947 ft | 449 kts | 53° |
| 2026-05-07 08:36 | 36.56550 | -114.28666 | 32961 ft | 449 kts | 53° |
| 2026-05-07 08:37 | 36.60054 | -114.22275 | 32964 ft | 449 kts | 53° |
| 2026-05-07 08:37 | 36.63573 | -114.15845 | 32968 ft | 449 kts | 53° |
| 2026-05-07 08:38 | 36.67083 | -114.09419 | 32973 ft | 449 kts | 53° |
| 2026-05-07 08:38 | 36.70609 | -114.02950 | 32978 ft | 450 kts | 53° |
| 2026-05-07 08:39 | 36.74114 | -113.96508 | 32988 ft | 450 kts | 53° |
| 2026-05-07 08:39 | 36.77632 | -113.90030 | 32993 ft | 450 kts | 53° |
| 2026-05-07 08:40 | 36.81142 | -113.83555 | 33009 ft | 450 kts | 53° |
| 2026-05-07 08:40 | 36.84648 | -113.77075 | 33049 ft | 450 kts | 53° |
| 2026-05-07 08:41 | 36.88149 | -113.70590 | 33073 ft | 451 kts | 53° |
| 2026-05-07 08:41 | 36.91651 | -113.64092 | 33106 ft | 451 kts | 53° |
| 2026-05-07 08:42 | 36.95151 | -113.57585 | 33126 ft | 451 kts | 53° |
| 2026-05-07 08:42 | 36.98627 | -113.51111 | 33130 ft | 451 kts | 53° |
| 2026-05-07 08:43 | 37.02121 | -113.44589 | 33129 ft | 451 kts | 53° |
| 2026-05-07 08:43 | 37.05611 | -113.38061 | 33129 ft | 451 kts | 54° |
| 2026-05-07 08:44 | 37.09104 | -113.31518 | 33110 ft | 451 kts | 54° |
| 2026-05-07 08:44 | 37.12588 | -113.24977 | 33095 ft | 451 kts | 54° |
| 2026-05-07 08:45 | 37.16067 | -113.18432 | 33141 ft | 451 kts | 54° |
| 2026-05-07 08:45 | 37.19522 | -113.11921 | 33129 ft | 451 kts | 54° |
| 2026-05-07 08:46 | 37.22992 | -113.05369 | 33129 ft | 450 kts | 54° |
| 2026-05-07 08:46 | 37.26454 | -112.98820 | 33110 ft | 450 kts | 54° |
| 2026-05-07 08:47 | 37.29910 | -112.92266 | 33092 ft | 449 kts | 54° |
| 2026-05-07 08:47 | 37.33341 | -112.85749 | 33085 ft | 449 kts | 54° |
| 2026-05-07 08:48 | 37.36782 | -112.79201 | 33075 ft | 447 kts | 54° |
| 2026-05-07 08:48 | 37.40207 | -112.72668 | 33098 ft | 446 kts | 54° |
| 2026-05-07 08:49 | 37.43619 | -112.66149 | 33102 ft | 446 kts | 54° |
| 2026-05-07 08:49 | 37.47021 | -112.59635 | 33096 ft | 445 kts | 54° |
| 2026-05-07 08:50 | 37.50418 | -112.53120 | 33104 ft | 444 kts | 54° |
| 2026-05-07 08:50 | 37.53804 | -112.46611 | 33147 ft | 444 kts | 54° |
| 2026-05-07 08:51 | 37.57167 | -112.40135 | 33204 ft | 444 kts | 54° |
| 2026-05-07 08:51 | 37.60545 | -112.33616 | 33255 ft | 444 kts | 54° |
| 2026-05-07 08:52 | 37.63950 | -112.27112 | 33298 ft | 443 kts | 51° |
| 2026-05-07 08:52 | 37.67710 | -112.20960 | 33328 ft | 442 kts | 49° |
| 2026-05-07 08:53 | 37.71566 | -112.14911 | 33322 ft | 442 kts | 48° |
| 2026-05-07 08:53 | 37.75405 | -112.08837 | 33324 ft | 442 kts | 49° |
| 2026-05-07 08:54 | 37.79221 | -112.02734 | 33300 ft | 442 kts | 49° |
| 2026-05-07 08:54 | 37.83025 | -111.96613 | 33252 ft | 442 kts | 49° |
| 2026-05-07 08:55 | 37.86807 | -111.90513 | 33201 ft | 443 kts | 49° |
| 2026-05-07 08:55 | 37.90605 | -111.84377 | 33163 ft | 443 kts | 49° |
| 2026-05-07 08:56 | 37.94404 | -111.78229 | 33117 ft | 443 kts | 49° |
| 2026-05-07 08:56 | 37.98198 | -111.72077 | 33122 ft | 443 kts | 49° |
| 2026-05-07 08:57 | 38.01995 | -111.65909 | 33116 ft | 443 kts | 49° |
| 2026-05-07 08:57 | 38.05790 | -111.59734 | 33128 ft | 443 kts | 49° |
| 2026-05-07 08:58 | 38.09560 | -111.53587 | 33126 ft | 444 kts | 49° |
| 2026-05-07 08:58 | 38.13359 | -111.47381 | 33122 ft | 444 kts | 49° |
| 2026-05-07 08:59 | 38.17151 | -111.41174 | 33125 ft | 445 kts | 49° |
| 2026-05-07 08:59 | 38.20953 | -111.34941 | 33112 ft | 447 kts | 49° |
| 2026-05-07 09:00 | 38.24760 | -111.28686 | 33115 ft | 447 kts | 49° |
| 2026-05-07 09:00 | 38.28569 | -111.22414 | 33111 ft | 448 kts | 49° |
| 2026-05-07 09:01 | 38.32380 | -111.16129 | 33120 ft | 448 kts | 49° |
| 2026-05-07 09:01 | 38.36187 | -111.09839 | 33141 ft | 448 kts | 49° |
| 2026-05-07 09:02 | 38.39994 | -111.03536 | 33164 ft | 449 kts | 49° |
| 2026-05-07 09:02 | 38.43782 | -110.97251 | 33204 ft | 449 kts | 49° |
| 2026-05-07 09:03 | 38.47589 | -110.90923 | 33215 ft | 450 kts | 49° |
| 2026-05-07 09:03 | 38.51397 | -110.84581 | 33227 ft | 450 kts | 49° |
| 2026-05-07 09:04 | 38.55203 | -110.78230 | 33224 ft | 450 kts | 49° |
| 2026-05-07 09:04 | 38.59010 | -110.71866 | 33224 ft | 451 kts | 49° |
| 2026-05-07 09:05 | 38.62818 | -110.65487 | 33196 ft | 452 kts | 49° |
| 2026-05-07 09:05 | 38.66630 | -110.59088 | 33182 ft | 452 kts | 49° |
| 2026-05-07 09:06 | 38.69799 | -110.53759 | 33159 ft | 453 kts | 49° |
| 2026-05-07 09:06 | 38.73615 | -110.47330 | 33141 ft | 454 kts | 49° |
| 2026-05-07 09:07 | 38.77438 | -110.40876 | 33147 ft | 454 kts | 49° |
| 2026-05-07 09:07 | 38.81261 | -110.34410 | 33148 ft | 455 kts | 49° |
| 2026-05-07 09:08 | 38.85081 | -110.27935 | 33152 ft | 455 kts | 49° |
| 2026-05-07 09:08 | 38.88880 | -110.21483 | 33157 ft | 456 kts | 49° |
| 2026-05-07 09:09 | 38.92700 | -110.14983 | 33155 ft | 456 kts | 49° |
| 2026-05-07 09:09 | 38.96520 | -110.08469 | 33159 ft | 456 kts | 49° |
| 2026-05-07 09:10 | 39.00334 | -110.01950 | 33162 ft | 456 kts | 49° |
| 2026-05-07 09:10 | 39.04148 | -109.95422 | 33173 ft | 457 kts | 49° |
| 2026-05-07 09:11 | 39.07817 | -109.88735 | 33163 ft | 458 kts | 52° |
| 2026-05-07 09:11 | 39.11334 | -109.81878 | 33158 ft | 459 kts | 52° |
| 2026-05-07 09:12 | 39.14817 | -109.75064 | 33164 ft | 459 kts | 52° |
| 2026-05-07 09:12 | 39.18342 | -109.68215 | 33163 ft | 459 kts | 52° |
| 2026-05-07 09:13 | 39.21877 | -109.61365 | 33159 ft | 459 kts | 52° |
| 2026-05-07 09:13 | 39.25412 | -109.54507 | 33160 ft | 459 kts | 52° |
| 2026-05-07 09:14 | 39.28940 | -109.47648 | 33168 ft | 458 kts | 52° |
| 2026-05-07 09:14 | 39.32462 | -109.40783 | 33158 ft | 459 kts | 52° |
| 2026-05-07 09:15 | 39.35987 | -109.33898 | 33168 ft | 459 kts | 52° |
| 2026-05-07 09:15 | 39.39502 | -109.27017 | 33169 ft | 459 kts | 52° |
| 2026-05-07 09:16 | 39.43013 | -109.20128 | 33174 ft | 458 kts | 52° |
| 2026-05-07 09:16 | 39.46506 | -109.13260 | 33162 ft | 459 kts | 52° |
| 2026-05-07 09:17 | 39.48267 | -109.09794 | 33285 ft | 461 kts | 52° |
| 2026-05-07 09:17 | 39.50025 | -109.06329 | 33568 ft | 459 kts | 52° |
| 2026-05-07 09:17 | 39.51776 | -109.02870 | 33905 ft | 457 kts | 52° |
| 2026-05-07 09:17 | 39.53509 | -108.99443 | 34229 ft | 454 kts | 52° |
| 2026-05-07 09:18 | 39.55234 | -108.96028 | 34447 ft | 453 kts | 52° |
| 2026-05-07 09:18 | 39.56963 | -108.92606 | 34577 ft | 454 kts | 52° |
| 2026-05-07 09:18 | 39.58674 | -108.89218 | 34698 ft | 455 kts | 52° |
| 2026-05-07 09:18 | 39.60407 | -108.85780 | 34878 ft | 454 kts | 52° |
| 2026-05-07 09:19 | 39.62134 | -108.82350 | 35082 ft | 453 kts | 52° |
| 2026-05-07 09:19 | 39.63853 | -108.78930 | 35162 ft | 453 kts | 52° |
| 2026-05-07 09:19 | 39.67308 | -108.72051 | 35169 ft | 455 kts | 52° |
| 2026-05-07 09:20 | 39.70756 | -108.65166 | 35193 ft | 454 kts | 52° |
| 2026-05-07 09:20 | 39.74194 | -108.58287 | 35178 ft | 453 kts | 52° |
| 2026-05-07 09:21 | 39.77600 | -108.51460 | 35180 ft | 453 kts | 52° |
| 2026-05-07 09:21 | 39.81018 | -108.44591 | 35189 ft | 452 kts | 52° |
| 2026-05-07 09:22 | 39.84428 | -108.37726 | 35203 ft | 452 kts | 52° |
| 2026-05-07 09:22 | 39.87855 | -108.30811 | 35201 ft | 452 kts | 52° |
| 2026-05-07 09:23 | 39.91191 | -108.24064 | 35227 ft | 453 kts | 52° |
| 2026-05-07 09:23 | 39.94607 | -108.17141 | 35238 ft | 454 kts | 52° |
| 2026-05-07 09:24 | 39.98023 | -108.10202 | 35246 ft | 455 kts | 52° |
| 2026-05-07 09:24 | 40.01441 | -108.03241 | 35260 ft | 456 kts | 52° |
| 2026-05-07 09:25 | 40.04840 | -107.96307 | 35258 ft | 457 kts | 52° |
| 2026-05-07 09:25 | 40.08225 | -107.89273 | 35255 ft | 458 kts | 54° |
| 2026-05-07 09:26 | 40.11408 | -107.82056 | 35268 ft | 459 kts | 55° |
| 2026-05-07 09:26 | 40.14553 | -107.74778 | 35259 ft | 459 kts | 55° |
| 2026-05-07 09:27 | 40.17711 | -107.67517 | 35256 ft | 460 kts | 55° |
| 2026-05-07 09:28 | 40.22487 | -107.56594 | 35243 ft | 461 kts | 55° |
| 2026-05-07 09:28 | 40.25649 | -107.49356 | 35228 ft | 461 kts | 55° |
| 2026-05-07 09:29 | 40.28824 | -107.42067 | 35239 ft | 461 kts | 55° |
| 2026-05-07 09:29 | 40.31996 | -107.34767 | 35259 ft | 461 kts | 55° |
| 2026-05-07 09:30 | 40.35160 | -107.27468 | 35271 ft | 460 kts | 55° |
| 2026-05-07 09:30 | 40.38317 | -107.20168 | 35273 ft | 460 kts | 55° |
| 2026-05-07 09:31 | 40.41474 | -107.12851 | 35266 ft | 461 kts | 55° |
| 2026-05-07 09:31 | 40.44629 | -107.05520 | 35263 ft | 461 kts | 55° |
| 2026-05-07 09:32 | 40.47779 | -106.98184 | 35265 ft | 461 kts | 55° |
| 2026-05-07 09:32 | 40.50922 | -106.90845 | 35258 ft | 461 kts | 55° |
| 2026-05-07 09:33 | 40.54059 | -106.83501 | 35266 ft | 461 kts | 55° |
| 2026-05-07 09:33 | 40.57169 | -106.76203 | 35261 ft | 460 kts | 55° |
| 2026-05-07 09:34 | 40.60296 | -106.68850 | 35257 ft | 461 kts | 55° |
| 2026-05-07 09:34 | 40.63422 | -106.61483 | 35246 ft | 461 kts | 55° |
| 2026-05-07 09:35 | 40.66542 | -106.54109 | 35248 ft | 461 kts | 55° |
| 2026-05-07 09:35 | 40.69660 | -106.46722 | 35231 ft | 462 kts | 55° |
| 2026-05-07 09:36 | 40.72783 | -106.39305 | 35234 ft | 463 kts | 55° |
| 2026-05-07 09:36 | 40.75903 | -106.31878 | 35226 ft | 464 kts | 55° |
| 2026-05-07 09:37 | 40.79030 | -106.24415 | 35223 ft | 465 kts | 55° |
| 2026-05-07 09:37 | 40.82160 | -106.16927 | 35211 ft | 466 kts | 55° |
| 2026-05-07 09:38 | 40.85272 | -106.09462 | 35207 ft | 467 kts | 55° |
| 2026-05-07 09:38 | 40.88408 | -106.01923 | 35193 ft | 468 kts | 55° |
| 2026-05-07 09:39 | 40.91548 | -105.94353 | 35173 ft | 469 kts | 56° |
| 2026-05-07 09:39 | 40.94677 | -105.86790 | 35168 ft | 469 kts | 56° |
| 2026-05-07 09:40 | 40.97789 | -105.79251 | 35142 ft | 470 kts | 56° |
| 2026-05-07 09:40 | 41.00920 | -105.71646 | 35119 ft | 470 kts | 56° |
| 2026-05-07 09:41 | 41.04044 | -105.64038 | 35104 ft | 470 kts | 56° |
| 2026-05-07 09:41 | 41.07164 | -105.56420 | 35095 ft | 470 kts | 56° |
| 2026-05-07 09:42 | 41.10261 | -105.48838 | 35091 ft | 470 kts | 56° |
| 2026-05-07 09:42 | 41.13368 | -105.41214 | 35079 ft | 469 kts | 56° |
| 2026-05-07 09:43 | 41.16467 | -105.33590 | 35071 ft | 469 kts | 56° |
| 2026-05-07 09:43 | 41.19557 | -105.25969 | 35070 ft | 469 kts | 56° |
| 2026-05-07 09:44 | 41.22647 | -105.18329 | 35065 ft | 469 kts | 56° |
| 2026-05-07 09:44 | 41.25732 | -105.10679 | 35063 ft | 470 kts | 56° |
| 2026-05-07 09:45 | 41.28818 | -105.03009 | 35046 ft | 470 kts | 56° |
| 2026-05-07 09:45 | 41.31883 | -104.95373 | 35047 ft | 471 kts | 56° |
| 2026-05-07 09:46 | 41.34967 | -104.87668 | 35043 ft | 472 kts | 56° |
| 2026-05-07 09:46 | 41.38050 | -104.79943 | 35041 ft | 472 kts | 56° |
| 2026-05-07 09:47 | 41.41135 | -104.72195 | 35032 ft | 473 kts | 56° |
| 2026-05-07 09:47 | 41.44216 | -104.64434 | 35018 ft | 474 kts | 56° |
| 2026-05-07 09:48 | 41.47295 | -104.56660 | 35000 ft | 474 kts | 56° |
| 2026-05-07 09:48 | 41.50373 | -104.48867 | 34995 ft | 475 kts | 56° |
| 2026-05-07 09:49 | 41.53445 | -104.41068 | 34988 ft | 475 kts | 56° |
| 2026-05-07 09:49 | 41.56489 | -104.33320 | 34979 ft | 474 kts | 56° |
| 2026-05-07 09:50 | 41.59550 | -104.25507 | 34976 ft | 474 kts | 56° |
| 2026-05-07 09:50 | 41.62605 | -104.17691 | 34970 ft | 474 kts | 56° |
| 2026-05-07 09:51 | 41.65654 | -104.09866 | 34981 ft | 474 kts | 56° |
| 2026-05-07 09:51 | 41.68698 | -104.02036 | 34981 ft | 474 kts | 56° |
| 2026-05-07 09:52 | 41.71737 | -103.94195 | 34982 ft | 474 kts | 56° |
| 2026-05-07 09:52 | 41.74771 | -103.86347 | 34973 ft | 474 kts | 56° |
| 2026-05-07 09:53 | 41.77782 | -103.78539 | 34968 ft | 474 kts | 56° |
| 2026-05-07 09:53 | 41.80810 | -103.70663 | 34964 ft | 474 kts | 56° |
| 2026-05-07 09:54 | 41.83828 | -103.62792 | 34968 ft | 474 kts | 57° |
| 2026-05-07 09:54 | 41.86331 | -103.56248 | 34965 ft | 474 kts | 57° |
| 2026-05-07 09:55 | 41.89344 | -103.48353 | 34969 ft | 475 kts | 57° |
| 2026-05-07 09:55 | 41.92212 | -103.40348 | 34966 ft | 477 kts | 59° |
| 2026-05-07 09:56 | 41.94955 | -103.32239 | 34968 ft | 477 kts | 60° |
| 2026-05-07 09:56 | 41.97702 | -103.24107 | 34962 ft | 478 kts | 60° |
| 2026-05-07 09:57 | 42.00461 | -103.15995 | 34951 ft | 478 kts | 60° |
| 2026-05-07 09:57 | 42.03225 | -103.07888 | 34945 ft | 478 kts | 60° |
| 2026-05-07 09:58 | 42.05997 | -102.99739 | 34934 ft | 478 kts | 60° |
| 2026-05-07 09:58 | 42.08762 | -102.91586 | 34930 ft | 478 kts | 60° |
| 2026-05-07 09:59 | 42.11522 | -102.83419 | 34924 ft | 478 kts | 60° |
| 2026-05-07 09:59 | 42.14264 | -102.75279 | 34931 ft | 478 kts | 60° |
| 2026-05-07 10:00 | 42.17005 | -102.67123 | 34934 ft | 479 kts | 60° |
| 2026-05-07 10:00 | 42.19747 | -102.58937 | 34939 ft | 480 kts | 60° |
| 2026-05-07 10:01 | 42.22483 | -102.50743 | 34951 ft | 479 kts | 60° |
| 2026-05-07 10:01 | 42.25238 | -102.42473 | 34957 ft | 483 kts | 60° |
| 2026-05-07 10:02 | 42.27989 | -102.34187 | 34955 ft | 486 kts | 61° |
| 2026-05-07 10:02 | 42.30751 | -102.25839 | 34957 ft | 487 kts | 61° |
| 2026-05-07 10:03 | 42.33490 | -102.17531 | 34950 ft | 487 kts | 61° |
| 2026-05-07 10:03 | 42.36243 | -102.09159 | 34945 ft | 487 kts | 61° |
| 2026-05-07 10:04 | 42.38987 | -102.00788 | 34947 ft | 486 kts | 61° |
| 2026-05-07 10:04 | 42.41719 | -101.92430 | 34941 ft | 485 kts | 61° |
| 2026-05-07 10:05 | 42.44436 | -101.84091 | 34933 ft | 484 kts | 61° |
| 2026-05-07 10:05 | 42.47128 | -101.75803 | 34946 ft | 482 kts | 61° |
| 2026-05-07 10:06 | 42.49824 | -101.67480 | 34938 ft | 482 kts | 61° |
| 2026-05-07 10:06 | 42.52510 | -101.59161 | 34940 ft | 481 kts | 61° |
| 2026-05-07 10:07 | 42.55191 | -101.50832 | 34945 ft | 481 kts | 61° |
| 2026-05-07 10:07 | 42.57863 | -101.42503 | 34939 ft | 481 kts | 61° |
| 2026-05-07 10:08 | 42.60531 | -101.34164 | 34943 ft | 482 kts | 61° |
| 2026-05-07 10:08 | 42.63199 | -101.25797 | 34935 ft | 483 kts | 61° |
| 2026-05-07 10:09 | 42.65863 | -101.17415 | 34943 ft | 484 kts | 61° |
| 2026-05-07 10:09 | 42.68512 | -101.09055 | 34935 ft | 485 kts | 61° |
| 2026-05-07 10:10 | 42.71174 | -101.00628 | 34939 ft | 486 kts | 61° |
| 2026-05-07 10:10 | 42.73838 | -100.92164 | 34933 ft | 486 kts | 60° |
| 2026-05-07 10:11 | 42.76498 | -100.83690 | 34936 ft | 487 kts | 61° |
| 2026-05-07 10:11 | 42.79156 | -100.75192 | 34928 ft | 488 kts | 61° |
| 2026-05-07 10:12 | 42.81810 | -100.66681 | 34930 ft | 488 kts | 61° |
| 2026-05-07 10:12 | 42.84457 | -100.58163 | 34924 ft | 488 kts | 61° |
| 2026-05-07 10:13 | 42.87079 | -100.49699 | 34931 ft | 488 kts | 61° |
| 2026-05-07 10:13 | 42.89718 | -100.41154 | 34924 ft | 488 kts | 61° |
| 2026-05-07 10:14 | 42.92348 | -100.32610 | 34934 ft | 489 kts | 61° |
| 2026-05-07 10:14 | 42.94978 | -100.24038 | 34940 ft | 489 kts | 61° |
| 2026-05-07 10:15 | 42.97601 | -100.15459 | 34945 ft | 490 kts | 61° |
| 2026-05-07 10:15 | 43.00222 | -100.06860 | 34932 ft | 490 kts | 61° |
| 2026-05-07 10:16 | 43.02839 | -99.98247 | 34935 ft | 491 kts | 61° |
| 2026-05-07 10:16 | 43.05436 | -99.89669 | 34937 ft | 491 kts | 61° |
| 2026-05-07 10:17 | 43.08049 | -99.81008 | 34935 ft | 492 kts | 61° |
| 2026-05-07 10:17 | 43.10656 | -99.72341 | 34926 ft | 493 kts | 61° |
| 2026-05-07 10:18 | 43.13259 | -99.63655 | 34930 ft | 493 kts | 61° |
| 2026-05-07 10:18 | 43.15856 | -99.54961 | 34932 ft | 493 kts | 61° |
| 2026-05-07 10:19 | 43.18447 | -99.46259 | 34936 ft | 493 kts | 61° |
| 2026-05-07 10:19 | 43.21015 | -99.37601 | 34936 ft | 493 kts | 62° |
| 2026-05-07 10:20 | 43.23594 | -99.28880 | 34931 ft | 493 kts | 62° |
| 2026-05-07 10:20 | 43.26165 | -99.20156 | 34931 ft | 493 kts | 62° |
| 2026-05-07 10:21 | 43.28735 | -99.11404 | 34937 ft | 494 kts | 62° |
| 2026-05-07 10:21 | 43.31293 | -99.02663 | 34938 ft | 494 kts | 62° |
| 2026-05-07 10:22 | 43.33850 | -98.93899 | 34949 ft | 494 kts | 62° |
| 2026-05-07 10:22 | 43.36406 | -98.85103 | 34947 ft | 495 kts | 62° |
| 2026-05-07 10:23 | 43.38957 | -98.76297 | 34938 ft | 496 kts | 62° |
| 2026-05-07 10:23 | 43.41487 | -98.67532 | 34944 ft | 496 kts | 62° |
| 2026-05-07 10:24 | 43.44030 | -98.58691 | 34941 ft | 497 kts | 63° |
| 2026-05-07 10:24 | 43.46566 | -98.49841 | 34943 ft | 497 kts | 63° |
| 2026-05-07 10:25 | 43.49099 | -98.40972 | 34946 ft | 498 kts | 63° |
| 2026-05-07 10:25 | 43.51631 | -98.32073 | 34949 ft | 499 kts | 63° |
| 2026-05-07 10:26 | 43.54158 | -98.23164 | 34947 ft | 499 kts | 63° |
| 2026-05-07 10:26 | 43.56680 | -98.14237 | 34952 ft | 500 kts | 63° |
| 2026-05-07 10:27 | 43.59196 | -98.05300 | 34949 ft | 500 kts | 63° |
| 2026-05-07 10:27 | 43.61694 | -97.96396 | 34953 ft | 501 kts | 63° |
| 2026-05-07 10:28 | 43.64203 | -97.87422 | 34959 ft | 502 kts | 64° |
| 2026-05-07 10:28 | 43.66711 | -97.78416 | 34957 ft | 502 kts | 64° |
| 2026-05-07 10:29 | 43.69215 | -97.69392 | 34958 ft | 503 kts | 64° |
| 2026-05-07 10:29 | 43.71713 | -97.60356 | 34968 ft | 503 kts | 64° |
| 2026-05-07 10:30 | 43.74162 | -97.51432 | 34951 ft | 487 kts | 61° |
| 2026-05-07 10:30 | 43.75356 | -97.47070 | 34957 ft | 483 kts | 61° |
| 2026-05-07 10:30 | 43.77727 | -97.38427 | 34974 ft | 482 kts | 61° |
| 2026-05-07 10:31 | 43.80105 | -97.29742 | 34973 ft | 482 kts | 61° |
| 2026-05-07 10:31 | 43.82480 | -97.21027 | 34975 ft | 484 kts | 62° |
| 2026-05-07 10:32 | 43.84843 | -97.12314 | 34969 ft | 487 kts | 62° |
| 2026-05-07 10:32 | 43.87226 | -97.03492 | 34966 ft | 490 kts | 62° |
| 2026-05-07 10:33 | 43.89615 | -96.94612 | 34969 ft | 493 kts | 62° |
| 2026-05-07 10:33 | 43.92008 | -96.85682 | 34974 ft | 495 kts | 62° |
| 2026-05-07 10:34 | 43.94402 | -96.76715 | 34986 ft | 495 kts | 63° |
| 2026-05-07 10:34 | 43.96790 | -96.67739 | 34990 ft | 495 kts | 63° |
| 2026-05-07 10:35 | 43.99162 | -96.58791 | 34976 ft | 495 kts | 63° |
| 2026-05-07 10:35 | 44.01528 | -96.49831 | 34958 ft | 494 kts | 63° |
| 2026-05-07 10:36 | 44.03881 | -96.40888 | 34950 ft | 493 kts | 63° |
| 2026-05-07 10:36 | 44.06236 | -96.31902 | 34951 ft | 493 kts | 64° |
| 2026-05-07 10:37 | 44.08580 | -96.22929 | 34958 ft | 493 kts | 64° |
| 2026-05-07 10:37 | 44.10903 | -96.13999 | 34976 ft | 492 kts | 64° |
| 2026-05-07 10:38 | 44.13225 | -96.05039 | 34982 ft | 492 kts | 64° |
| 2026-05-07 10:38 | 44.15546 | -95.96061 | 34998 ft | 492 kts | 64° |
| 2026-05-07 10:39 | 44.18493 | -95.87638 | 35004 ft | 484 kts | 54° |
| 2026-05-07 10:39 | 44.21867 | -95.79489 | 34995 ft | 484 kts | 54° |
| 2026-05-07 10:40 | 44.25197 | -95.71302 | 34991 ft | 486 kts | 55° |
| 2026-05-07 10:40 | 44.28465 | -95.63013 | 34992 ft | 488 kts | 56° |
| 2026-05-07 10:41 | 44.31159 | -95.56096 | 34989 ft | 489 kts | 56° |
| 2026-05-07 10:41 | 44.34411 | -95.47731 | 34809 ft | 493 kts | 56° |
| 2026-05-07 10:42 | 44.36064 | -95.43483 | 34214 ft | 497 kts | 56° |
| 2026-05-07 10:42 | 44.37701 | -95.39256 | 33588 ft | 492 kts | 56° |
| 2026-05-07 10:42 | 44.39346 | -95.35012 | 32346 ft | 500 kts | 56° |
| 2026-05-07 10:42 | 44.40993 | -95.30753 | 31603 ft | 495 kts | 56° |
| 2026-05-07 10:43 | 44.42619 | -95.26537 | 31131 ft | 486 kts | 56° |
| 2026-05-07 10:43 | 44.44177 | -95.22487 | 30985 ft | 471 kts | 56° |
| 2026-05-07 10:43 | 44.45699 | -95.18498 | 30827 ft | 458 kts | 57° |
| 2026-05-07 10:43 | 44.46938 | -95.14378 | 30283 ft | 461 kts | 65° |
| 2026-05-07 10:44 | 44.47943 | -95.10118 | 29731 ft | 459 kts | 67° |
| 2026-05-07 10:44 | 44.48864 | -95.05860 | 29124 ft | 455 kts | 68° |
| 2026-05-07 10:44 | 44.49766 | -95.01641 | 28592 ft | 450 kts | 68° |
| 2026-05-07 10:44 | 44.50678 | -94.97460 | 28063 ft | 444 kts | 68° |
| 2026-05-07 10:45 | 44.51596 | -94.93354 | 27521 ft | 440 kts | 68° |
| 2026-05-07 10:45 | 44.52522 | -94.89290 | 27011 ft | 435 kts | 68° |
| 2026-05-07 10:45 | 44.53447 | -94.85274 | 26486 ft | 431 kts | 68° |
| 2026-05-07 10:45 | 44.54367 | -94.81291 | 25981 ft | 427 kts | 68° |
| 2026-05-07 10:46 | 44.55276 | -94.77356 | 25478 ft | 423 kts | 68° |
| 2026-05-07 10:46 | 44.56164 | -94.73501 | 24993 ft | 419 kts | 68° |
| 2026-05-07 10:46 | 44.57056 | -94.69621 | 24500 ft | 415 kts | 69° |
| 2026-05-07 10:46 | 44.57936 | -94.65781 | 24016 ft | 412 kts | 69° |
| 2026-05-07 10:47 | 44.58809 | -94.61963 | 23519 ft | 409 kts | 69° |
| 2026-05-07 10:47 | 44.59671 | -94.58184 | 22931 ft | 405 kts | 69° |
| 2026-05-07 10:47 | 44.60522 | -94.54445 | 22429 ft | 398 kts | 69° |
| 2026-05-07 10:47 | 44.61354 | -94.50783 | 21956 ft | 390 kts | 69° |
| 2026-05-07 10:48 | 44.62174 | -94.47175 | 21477 ft | 387 kts | 69° |
| 2026-05-07 10:48 | 44.62987 | -94.43591 | 21016 ft | 383 kts | 69° |
| 2026-05-07 10:48 | 44.63791 | -94.40041 | 20544 ft | 380 kts | 69° |
| 2026-05-07 10:48 | 44.64576 | -94.36567 | 20093 ft | 377 kts | 69° |
| 2026-05-07 10:49 | 44.65376 | -94.33017 | 19635 ft | 375 kts | 69° |
| 2026-05-07 10:49 | 44.66159 | -94.29539 | 19181 ft | 372 kts | 69° |
| 2026-05-07 10:49 | 44.66935 | -94.26080 | 18739 ft | 370 kts | 69° |
| 2026-05-07 10:49 | 44.67707 | -94.22646 | 18297 ft | 368 kts | 69° |
| 2026-05-07 10:50 | 44.68468 | -94.19268 | 17793 ft | 366 kts | 69° |
| 2026-05-07 10:50 | 44.69235 | -94.15863 | 17320 ft | 364 kts | 69° |
| 2026-05-07 10:50 | 44.69996 | -94.12478 | 16892 ft | 361 kts | 69° |
| 2026-05-07 10:50 | 44.70750 | -94.09120 | 16441 ft | 359 kts | 69° |
| 2026-05-07 10:51 | 44.71499 | -94.05782 | 16001 ft | 357 kts | 69° |
| 2026-05-07 10:51 | 44.72243 | -94.02462 | 15559 ft | 355 kts | 69° |
| 2026-05-07 10:51 | 44.72981 | -93.99162 | 15148 ft | 353 kts | 69° |
| 2026-05-07 10:51 | 44.73716 | -93.95877 | 14724 ft | 351 kts | 69° |
| 2026-05-07 10:52 | 44.74448 | -93.92598 | 14308 ft | 350 kts | 69° |
| 2026-05-07 10:52 | 44.75177 | -93.89322 | 13890 ft | 349 kts | 69° |
| 2026-05-07 10:52 | 44.75908 | -93.86046 | 13139 ft | 356 kts | 69° |
| 2026-05-07 10:52 | 44.76650 | -93.82727 | 12699 ft | 354 kts | 69° |
| 2026-05-07 10:53 | 44.77376 | -93.79468 | 12535 ft | 343 kts | 69° |
| 2026-05-07 10:53 | 44.78078 | -93.76310 | 12396 ft | 332 kts | 69° |
| 2026-05-07 10:53 | 44.78747 | -93.73295 | 12256 ft | 322 kts | 69° |
| 2026-05-07 10:53 | 44.79408 | -93.70315 | 12010 ft | 316 kts | 69° |
| 2026-05-07 10:54 | 44.80058 | -93.67381 | 11708 ft | 312 kts | 69° |
| 2026-05-07 10:54 | 44.80494 | -93.65413 | 11483 ft | 311 kts | 69° |
| 2026-05-07 10:54 | 44.80953 | -93.63341 | 11250 ft | 309 kts | 69° |
| 2026-05-07 10:54 | 44.81589 | -93.60461 | 10921 ft | 307 kts | 69° |
| 2026-05-07 10:55 | 44.82221 | -93.57595 | 10604 ft | 305 kts | 69° |
| 2026-05-07 10:55 | 44.82847 | -93.54756 | 10297 ft | 303 kts | 69° |
| 2026-05-07 10:55 | 44.83465 | -93.51947 | 10093 ft | 296 kts | 69° |
| 2026-05-07 10:55 | 44.84063 | -93.49218 | 9959 ft | 288 kts | 69° |
| 2026-05-07 10:56 | 44.84651 | -93.46535 | 9658 ft | 285 kts | 69° |
| 2026-05-07 10:56 | 44.85037 | -93.43809 | 9360 ft | 286 kts | 91° |
| 2026-05-07 10:56 | 44.84579 | -93.41122 | 9132 ft | 282 kts | 116° |
| 2026-05-07 10:56 | 44.83604 | -93.38753 | 8862 ft | 278 kts | 123° |
| 2026-05-07 10:57 | 44.82573 | -93.36455 | 8582 ft | 278 kts | 123° |
| 2026-05-07 10:57 | 44.81558 | -93.34178 | 8468 ft | 276 kts | 123° |
| 2026-05-07 10:57 | 44.80543 | -93.31869 | 8363 ft | 278 kts | 122° |
| 2026-05-07 10:57 | 44.79538 | -93.29569 | 8229 ft | 271 kts | 122° |
| 2026-05-07 10:58 | 44.78568 | -93.27341 | 8089 ft | 263 kts | 122° |
| 2026-05-07 10:58 | 44.77626 | -93.25178 | 8005 ft | 256 kts | 122° |
| 2026-05-07 10:58 | 44.76702 | -93.23061 | 7992 ft | 253 kts | 122° |
| 2026-05-07 10:58 | 44.75778 | -93.20944 | 8012 ft | 255 kts | 122° |
| 2026-05-07 10:59 | 44.74766 | -93.18863 | 7940 ft | 260 kts | 130° |
| 2026-05-07 10:59 | 44.73602 | -93.16916 | 7834 ft | 260 kts | 133° |
| 2026-05-07 10:59 | 44.72420 | -93.15010 | 7726 ft | 256 kts | 133° |
| 2026-05-07 10:59 | 44.71269 | -93.13143 | 7663 ft | 248 kts | 133° |
| 2026-05-07 11:00 | 44.70156 | -93.11319 | 7552 ft | 246 kts | 132° |
| 2026-05-07 11:00 | 44.69043 | -93.09484 | 7468 ft | 248 kts | 132° |
| 2026-05-07 11:00 | 44.67920 | -93.07623 | 7374 ft | 250 kts | 132° |
| 2026-05-07 11:00 | 44.66809 | -93.05779 | 7271 ft | 250 kts | 132° |
| 2026-05-07 11:01 | 44.65686 | -93.03916 | 7184 ft | 249 kts | 132° |
| 2026-05-07 11:01 | 44.64617 | -93.02011 | 7071 ft | 249 kts | 119° |
| 2026-05-07 11:01 | 44.64210 | -92.99695 | 6974 ft | 245 kts | 84° |
| 2026-05-07 11:01 | 44.64703 | -92.97463 | 6799 ft | 237 kts | 53° |
| 2026-05-07 11:02 | 44.65767 | -92.95818 | 6626 ft | 221 kts | 36° |
| 2026-05-07 11:02 | 44.66933 | -92.94505 | 6407 ft | 210 kts | 33° |
| 2026-05-07 11:02 | 44.68054 | -92.93281 | 6227 ft | 199 kts | 33° |
| 2026-05-07 11:02 | 44.69195 | -92.92196 | 6050 ft | 196 kts | 15° |
| 2026-05-07 11:03 | 44.70494 | -92.92061 | 5850 ft | 185 kts | 341° |
| 2026-05-07 11:03 | 44.71621 | -92.92866 | 5649 ft | 180 kts | 322° |
| 2026-05-07 11:03 | 44.72624 | -92.93907 | 5405 ft | 178 kts | 320° |
| 2026-05-07 11:03 | 44.73608 | -92.94953 | 5167 ft | 176 kts | 320° |
| 2026-05-07 11:04 | 44.74566 | -92.95972 | 4930 ft | 174 kts | 320° |
| 2026-05-07 11:04 | 44.75534 | -92.96999 | 4722 ft | 174 kts | 320° |
| 2026-05-07 11:04 | 44.76514 | -92.98037 | 4487 ft | 174 kts | 320° |
| 2026-05-07 11:04 | 44.77471 | -92.99049 | 4294 ft | 175 kts | 320° |
| 2026-05-07 11:05 | 44.78423 | -93.00105 | 4028 ft | 171 kts | 311° |
| 2026-05-07 11:05 | 44.79127 | -93.01367 | 3844 ft | 161 kts | 305° |
| 2026-05-07 11:05 | 44.79786 | -93.02654 | 3624 ft | 162 kts | 301° |
| 2026-05-07 11:05 | 44.80398 | -93.03990 | 3391 ft | 160 kts | 300° |
| 2026-05-07 11:06 | 44.80971 | -93.05300 | 3179 ft | 154 kts | 299° |
| 2026-05-07 11:06 | 44.81527 | -93.06589 | 3073 ft | 154 kts | 298° |
| 2026-05-07 11:06 | 44.82081 | -93.07877 | 2957 ft | 152 kts | 298° |
| 2026-05-07 11:06 | 44.82625 | -93.09141 | 2753 ft | 149 kts | 298° |
| 2026-05-07 11:07 | 44.83157 | -93.10378 | 2552 ft | 147 kts | 298° |
| 2026-05-07 11:07 | 44.83687 | -93.11608 | 2350 ft | 148 kts | 298° |
| 2026-05-07 11:07 | 44.84221 | -93.12850 | 2151 ft | 149 kts | 299° |
| 2026-05-07 11:07 | 44.84758 | -93.14099 | 1937 ft | 150 kts | 299° |
| 2026-05-07 11:08 | 44.85302 | -93.15362 | 1686 ft | 151 kts | 300° |
| 2026-05-07 11:08 | 44.85836 | -93.16599 | 1448 ft | 148 kts | 301° |
| 2026-05-07 11:08 | 44.86372 | -93.17842 | 1249 ft | 145 kts | 301° |
| 2026-05-07 11:08 | 44.86887 | -93.19038 | 1054 ft | 145 kts | 301° |
| 2026-05-07 11:09 | 44.87412 | -93.20252 | 857 ft | 146 kts | 301° |
| 2026-05-07 11:09 | 44.87913 | -93.21401 | 834 ft | 124 kts | 301° |
| 2026-05-07 11:09 | 44.88247 | -93.22181 | 837 ft | 62 kts | 301° |
| 2026-05-07 11:09 | 44.88372 | -93.22426 | 837 ft | 8 kts | 337° |
| 2026-05-07 11:10 | 44.88436 | -93.22412 | 833 ft | 12 kts | 30° |
| 2026-05-07 11:10 | 44.88511 | -93.22326 | 830 ft | 14 kts | 44° |
| 2026-05-07 11:10 | 44.88564 | -93.22220 | 836 ft | 13 kts | 97° |
| 2026-05-07 11:10 | 44.88519 | -93.22108 | 831 ft | 13 kts | 121° |
| 2026-05-07 11:11 | 44.88459 | -93.22018 | 839 ft | 13 kts | 143° |
| 2026-05-07 11:11 | 44.88379 | -93.21941 | 833 ft | 14 kts | 146° |
| 2026-05-07 11:11 | 44.88310 | -93.21853 | 836 ft | 13 kts | 122° |
| 2026-05-07 11:11 | 44.88263 | -93.21744 | 832 ft | 13 kts | 121° |
| 2026-05-07 11:12 | 44.88217 | -93.21638 | 829 ft | 13 kts | 121° |
| 2026-05-07 11:12 | 44.88204 | -93.21554 | 835 ft | 4 kts | 30° |
| 2026-05-07 11:12 | 44.88231 | -93.21543 | 829 ft | 4 kts | 16° |
| 2026-05-07 11:12 | 44.88258 | -93.21531 | 827 ft | 5 kts | 19° |
| 2026-05-07 11:13 | 44.88292 | -93.21514 | 829 ft | 2 kts | 19° |
| 2026-05-07 11:13 | 44.88306 | -93.21508 | 833 ft | 1 kts | 18° |
| 2026-05-07 11:13 | 44.88308 | -93.21507 | 831 ft | 0 kts | 18° |